createdAt,value
2023-12-13T00:00:38.351Z,21.80
2023-12-13T00:03:05.492Z,17.70
2023-12-13T00:05:32.340Z,23.93
2023-12-13T00:07:59.069Z,15.47
2023-12-13T00:10:25.761Z,17.57
2023-12-13T00:12:52.393Z,15.63
2023-12-13T00:15:20.802Z,19.17
2023-12-13T00:17:47.708Z,18.50
2023-12-13T00:20:14.499Z,16.80
2023-12-13T00:22:41.118Z,18.87
2023-12-13T00:25:08.716Z,20.07
2023-12-13T00:27:35.521Z,20.73
2023-12-13T00:30:02.462Z,17.67
2023-12-13T00:32:29.087Z,19.27
2023-12-13T00:34:55.803Z,18.03
2023-12-13T00:37:22.541Z,17.13
2023-12-13T00:39:49.133Z,16.90
2023-12-13T00:42:15.775Z,22.20
2023-12-13T00:44:42.365Z,18.53
2023-12-13T00:47:09.101Z,19.57
2023-12-13T00:49:36.166Z,19.33
2023-12-13T00:52:04.253Z,20.10
2023-12-13T00:54:31.045Z,18.27
2023-12-13T00:56:57.625Z,19.07
2023-12-13T00:59:24.226Z,18.10
2023-12-13T01:01:51.142Z,17.70
2023-12-13T01:04:17.942Z,17.00
2023-12-13T01:06:45.116Z,17.10
2023-12-13T01:09:12.057Z,16.43
2023-12-13T01:11:40.474Z,14.73
2023-12-13T01:14:08.196Z,15.93
2023-12-13T01:16:35.083Z,16.43
2023-12-13T01:19:02.084Z,14.20
2023-12-13T01:21:30.564Z,11.73
2023-12-13T01:23:57.580Z,13.20
2023-12-13T01:26:24.182Z,11.17
2023-12-13T01:28:50.922Z,10.53
2023-12-13T01:31:18.789Z,12.10
2023-12-13T01:33:45.842Z,12.10
2023-12-13T01:36:12.657Z,9.33
2023-12-13T01:38:39.748Z,10.33
2023-12-13T01:41:12.469Z,11.13
2023-12-13T01:43:44.150Z,15.00
2023-12-13T01:46:13.215Z,10.13
2023-12-13T01:48:41.170Z,9.53
2023-12-13T01:51:08.773Z,9.10
2023-12-13T01:53:37.705Z,7.63
2023-12-13T01:56:06.628Z,10.40
2023-12-13T01:58:38.118Z,8.93
2023-12-13T02:01:08.589Z,7.47
2023-12-13T02:03:36.844Z,7.80
2023-12-13T02:06:03.938Z,10.07
2023-12-13T02:08:31.059Z,8.07
2023-12-13T02:10:59.910Z,8.90
2023-12-13T02:13:27.080Z,8.07
2023-12-13T02:15:53.826Z,6.83
2023-12-13T02:18:20.837Z,7.90
2023-12-13T02:20:47.649Z,8.07
2023-12-13T02:23:14.321Z,6.33
2023-12-13T02:25:59.553Z,6.43
2023-12-13T02:28:27.415Z,6.70
2023-12-13T02:30:56.158Z,6.90
2023-12-13T02:33:27.422Z,6.50
2023-12-13T02:35:55.748Z,6.63
2023-12-13T02:38:22.456Z,5.80
2023-12-13T02:40:49.336Z,7.77
2023-12-13T02:43:16.371Z,6.97
2023-12-13T02:45:43.131Z,5.83
2023-12-13T02:48:10.573Z,6.13
2023-12-13T02:50:38.300Z,6.00
2023-12-13T02:53:05.412Z,6.63
2023-12-13T02:55:32.102Z,9.10
2023-12-13T02:58:03.723Z,5.73
2023-12-13T03:00:30.404Z,5.90
2023-12-13T03:02:58.794Z,4.37
2023-12-13T03:05:26.311Z,5.67
2023-12-13T03:07:53.068Z,5.57
2023-12-13T03:10:19.897Z,6.17
2023-12-13T03:12:46.614Z,5.87
2023-12-13T03:15:13.245Z,6.87
2023-12-13T03:17:40.319Z,6.77
2023-12-13T03:20:08.023Z,7.23
2023-12-13T03:22:34.622Z,6.30
2023-12-13T03:25:01.230Z,6.00
2023-12-13T03:27:27.825Z,7.67
2023-12-13T03:29:54.532Z,7.23
2023-12-13T03:32:21.103Z,7.07
2023-12-13T03:34:47.720Z,6.40
2023-12-13T03:37:16.045Z,6.00
2023-12-13T03:39:42.683Z,6.20
2023-12-13T03:42:09.280Z,5.73
2023-12-13T03:44:35.965Z,5.90
2023-12-13T03:47:02.723Z,5.90
2023-12-13T03:49:29.595Z,6.63
2023-12-13T03:51:56.326Z,5.70
2023-12-13T03:54:23.018Z,5.50
2023-12-13T03:56:49.669Z,5.23
2023-12-13T03:59:16.493Z,5.77
2023-12-13T04:01:43.150Z,5.47
2023-12-13T04:04:10.036Z,5.73
2023-12-13T04:06:36.823Z,5.57
2023-12-13T04:09:04.028Z,5.93
2023-12-13T04:11:30.711Z,6.00
2023-12-13T04:13:57.355Z,6.30
2023-12-13T04:16:24.007Z,5.77
2023-12-13T04:18:50.640Z,9.80
2023-12-13T04:21:17.247Z,6.87
2023-12-13T04:23:43.880Z,6.10
2023-12-13T04:26:11.041Z,6.60
2023-12-13T04:28:37.656Z,5.10
2023-12-13T04:31:04.441Z,5.83
2023-12-13T04:33:32.592Z,4.90
2023-12-13T04:36:00.832Z,5.37
2023-12-13T04:38:27.485Z,5.67
2023-12-13T04:40:54.568Z,5.77
2023-12-13T04:43:21.330Z,8.07
2023-12-13T04:45:47.977Z,4.53
2023-12-13T04:48:14.683Z,7.00
2023-12-13T04:50:41.430Z,6.07
2023-12-13T04:53:08.100Z,6.93
2023-12-13T04:55:34.790Z,6.77
2023-12-13T04:58:01.469Z,7.50
2023-12-13T05:00:28.053Z,5.80
2023-12-13T05:02:54.697Z,6.27
2023-12-13T05:05:21.338Z,12.80
2023-12-13T05:07:48.088Z,7.57
2023-12-13T05:10:14.862Z,6.30
2023-12-13T05:12:41.523Z,8.20
2023-12-13T05:15:08.413Z,6.63
2023-12-13T05:17:35.301Z,6.73
2023-12-13T05:20:02.121Z,5.73
2023-12-13T05:22:28.865Z,6.23
2023-12-13T05:24:55.500Z,7.50
2023-12-13T05:27:22.201Z,7.30
2023-12-13T05:29:48.846Z,6.53
2023-12-13T05:32:15.463Z,6.40
2023-12-13T05:34:42.197Z,7.13
2023-12-13T05:37:08.848Z,7.93
2023-12-13T05:39:35.521Z,7.27
2023-12-13T05:42:02.189Z,9.30
2023-12-13T05:44:29.418Z,8.93
2023-12-13T05:46:56.382Z,8.43
2023-12-13T05:49:23.456Z,8.40
2023-12-13T05:51:50.225Z,7.57
2023-12-13T05:54:17.015Z,6.33
2023-12-13T05:56:43.625Z,8.07
2023-12-13T05:59:12.409Z,6.60
2023-12-13T06:01:39.315Z,8.37
2023-12-13T06:04:06.666Z,9.30
2023-12-13T06:06:33.548Z,8.83
2023-12-13T06:09:00.363Z,9.57
2023-12-13T06:11:27.114Z,10.90
2023-12-13T06:13:53.863Z,11.13
2023-12-13T06:16:20.734Z,9.43
2023-12-13T06:18:47.426Z,13.40
2023-12-13T06:21:14.143Z,12.40
2023-12-13T06:23:40.780Z,13.27
2023-12-13T06:26:07.425Z,9.67
2023-12-13T06:28:34.097Z,10.47
2023-12-13T06:31:00.857Z,10.10
2023-12-13T06:33:27.657Z,13.67
2023-12-13T06:35:54.899Z,10.87
2023-12-13T06:38:21.614Z,11.00
2023-12-13T06:40:48.365Z,10.60
2023-12-13T06:43:15.183Z,10.57
2023-12-13T06:45:41.864Z,12.13
2023-12-13T06:48:08.773Z,9.73
2023-12-13T06:50:35.722Z,10.03
2023-12-13T06:53:02.523Z,10.80
2023-12-13T06:55:29.205Z,12.53
2023-12-13T06:57:56.137Z,9.97
2023-12-13T07:00:23.036Z,9.23
2023-12-13T07:02:50.807Z,12.47
2023-12-13T07:05:17.735Z,11.60
2023-12-13T07:07:44.987Z,11.63
2023-12-13T07:10:11.622Z,12.53
2023-12-13T07:12:38.848Z,12.10
2023-12-13T07:15:07.650Z,10.63
2023-12-13T07:17:34.950Z,7.60
2023-12-13T07:20:02.016Z,10.67
2023-12-13T07:22:28.914Z,11.43
2023-12-13T07:24:55.634Z,11.27
2023-12-13T07:27:22.331Z,10.30
2023-12-13T07:29:48.992Z,10.27
2023-12-13T07:32:15.636Z,12.00
2023-12-13T07:34:44.550Z,9.47
2023-12-13T07:37:14.098Z,8.60
2023-12-13T07:39:40.665Z,10.03
2023-12-13T07:42:07.635Z,10.70
2023-12-13T07:44:34.747Z,9.53
2023-12-13T07:47:02.182Z,9.77
2023-12-13T07:49:29.978Z,10.20
2023-12-13T07:51:56.787Z,19.40
2023-12-13T07:54:23.708Z,13.37
2023-12-13T07:56:54.774Z,11.37
2023-12-13T07:59:22.663Z,13.37
2023-12-13T08:01:49.830Z,11.67
2023-12-13T08:04:16.965Z,7.20
2023-12-13T08:06:43.839Z,9.80
2023-12-13T08:09:10.976Z,10.13
2023-12-13T08:11:38.329Z,10.67
2023-12-13T08:14:05.623Z,8.77
2023-12-13T08:16:32.441Z,10.97
2023-12-13T08:18:59.514Z,13.10
2023-12-13T08:21:26.297Z,21.43
2023-12-13T08:23:53.411Z,10.33
2023-12-13T08:26:20.503Z,10.77
2023-12-13T08:28:47.359Z,10.43
2023-12-13T08:31:21.070Z,9.00
2023-12-13T08:33:53.415Z,8.57
2023-12-13T08:36:20.241Z,8.87
2023-12-13T08:38:46.989Z,8.90
2023-12-13T08:41:16.010Z,8.00
2023-12-13T08:43:42.857Z,9.53
2023-12-13T08:46:10.084Z,11.23
2023-12-13T08:48:36.860Z,9.90
2023-12-13T08:51:09.228Z,9.73
2023-12-13T08:53:36.097Z,16.57
2023-12-13T08:56:04.729Z,12.60
2023-12-13T08:58:32.745Z,9.10
2023-12-13T09:01:00.068Z,9.10
2023-12-13T09:03:27.252Z,11.43
2023-12-13T09:05:54.829Z,8.77
2023-12-13T09:08:21.655Z,9.60
2023-12-13T09:10:48.836Z,10.93
2023-12-13T09:13:15.589Z,15.43
2023-12-13T09:15:44.294Z,8.30
2023-12-13T09:18:11.354Z,8.40
2023-12-13T09:20:38.234Z,12.97
2023-12-13T09:23:09.144Z,11.30
2023-12-13T09:25:35.753Z,9.47
2023-12-13T09:28:03.404Z,13.07
2023-12-13T09:30:30.094Z,12.47
2023-12-13T09:32:59.704Z,9.13
2023-12-13T09:35:26.475Z,10.17
2023-12-13T09:37:53.493Z,8.90
2023-12-13T09:40:21.874Z,12.20
2023-12-13T09:42:49.263Z,10.50
2023-12-13T09:45:24.572Z,11.23
2023-12-13T09:47:56.588Z,10.77
2023-12-13T09:50:32.039Z,8.67
2023-12-13T09:52:59.198Z,9.10
2023-12-13T09:55:26.912Z,8.10
2023-12-13T09:57:54.053Z,14.07
2023-12-13T10:00:22.032Z,11.13
2023-12-13T10:02:49.718Z,8.43
2023-12-13T10:05:19.143Z,12.00
2023-12-13T10:07:46.251Z,12.90
2023-12-13T10:10:13.374Z,8.57
2023-12-13T10:12:40.714Z,12.83
2023-12-13T10:15:14.482Z,11.03
2023-12-13T10:17:42.749Z,7.50
2023-12-13T10:20:10.543Z,7.70
2023-12-13T10:22:38.223Z,8.90
2023-12-13T10:25:06.134Z,7.27
2023-12-13T10:27:33.159Z,8.30
2023-12-13T10:30:00.750Z,7.57
2023-12-13T10:32:27.891Z,7.53
2023-12-13T10:34:54.694Z,7.50
2023-12-13T10:37:26.053Z,8.07
2023-12-13T10:39:57.437Z,8.17
2023-12-13T10:42:25.704Z,6.50
2023-12-13T10:44:56.097Z,7.10
2023-12-13T10:47:28.304Z,6.23
2023-12-13T10:49:57.312Z,6.60
2023-12-13T10:52:26.897Z,7.33
2023-12-13T10:54:54.025Z,6.40
2023-12-13T10:57:21.027Z,6.50
2023-12-13T10:59:49.764Z,6.90
2023-12-13T11:02:19.919Z,6.70
2023-12-13T11:04:47.794Z,7.10
2023-12-13T11:07:21.675Z,7.87
2023-12-13T11:09:54.339Z,8.23
2023-12-13T11:12:21.249Z,6.53
2023-12-13T11:14:51.958Z,7.33
2023-12-13T11:17:21.048Z,5.37
2023-12-13T11:19:53.773Z,8.90
2023-12-13T11:22:25.278Z,6.40
2023-12-13T11:25:04.681Z,5.63
2023-12-13T11:27:33.579Z,6.57
2023-12-13T11:30:13.541Z,6.70
2023-12-13T11:32:45.318Z,6.00
2023-12-13T11:35:15.381Z,4.90
2023-12-13T11:37:43.036Z,4.77
2023-12-13T11:40:10.617Z,4.83
2023-12-13T11:42:37.367Z,4.73
2023-12-13T11:45:05.172Z,6.23
2023-12-13T11:47:32.388Z,5.67
2023-12-13T11:49:59.295Z,3.73
2023-12-13T11:52:26.800Z,4.63
2023-12-13T11:54:53.500Z,3.80
2023-12-13T11:57:20.799Z,6.57
2023-12-13T11:59:48.410Z,5.50
2023-12-13T12:02:18.509Z,6.87
2023-12-13T12:04:46.069Z,5.13
2023-12-13T12:07:17.316Z,4.80
2023-12-13T12:09:51.861Z,4.30
2023-12-13T12:12:19.425Z,4.90
2023-12-13T12:14:49.432Z,4.23
2023-12-13T12:17:25.303Z,4.43
2023-12-13T12:19:52.897Z,3.80
2023-12-13T12:22:23.556Z,5.40
2023-12-13T12:24:53.123Z,4.97
2023-12-13T12:27:26.263Z,5.83
2023-12-13T12:29:53.787Z,4.43
2023-12-13T12:32:20.932Z,4.17
2023-12-13T12:34:49.829Z,4.77
2023-12-13T12:37:17.551Z,4.33
2023-12-13T12:39:45.050Z,3.47
2023-12-13T12:42:11.708Z,6.90
2023-12-13T12:44:38.437Z,3.83
2023-12-13T12:47:06.756Z,4.17
2023-12-13T12:49:33.480Z,5.40
2023-12-13T12:52:01.397Z,4.80
2023-12-13T12:54:28.131Z,3.03
2023-12-13T12:56:55.157Z,5.50
2023-12-13T12:59:23.664Z,6.20
2023-12-13T13:01:50.807Z,5.30
2023-12-13T13:04:20.812Z,4.50
2023-12-13T13:06:48.329Z,4.83
2023-12-13T13:09:18.512Z,4.37
2023-12-13T13:11:46.847Z,5.43
2023-12-13T13:14:14.199Z,5.23
2023-12-13T13:16:40.975Z,3.83
2023-12-13T13:19:07.986Z,5.57
2023-12-13T13:21:37.533Z,5.37
2023-12-13T13:24:08.035Z,8.03
2023-12-13T13:26:36.635Z,3.70
2023-12-13T13:29:05.780Z,4.50
2023-12-13T13:31:32.636Z,5.07
2023-12-13T13:33:59.396Z,4.97
2023-12-13T13:36:26.056Z,5.00
2023-12-13T13:38:52.657Z,6.63
2023-12-13T13:41:20.789Z,3.33
2023-12-13T13:43:47.429Z,4.57
2023-12-13T13:46:14.178Z,8.93
2023-12-13T13:48:40.997Z,5.63
2023-12-13T13:51:07.732Z,3.87
2023-12-13T13:53:34.744Z,6.63
2023-12-13T13:56:03.458Z,29.97
2023-12-13T13:58:30.988Z,6.80
2023-12-13T14:01:01.048Z,5.27
2023-12-13T14:03:27.851Z,5.30
2023-12-13T14:05:57.271Z,4.80
2023-12-13T14:08:24.074Z,2.50
2023-12-13T14:10:53.060Z,4.77
2023-12-13T14:13:20.164Z,4.57
2023-12-13T14:15:49.749Z,3.90
2023-12-13T14:18:20.268Z,5.53
2023-12-13T14:20:50.246Z,4.50
2023-12-13T14:23:17.061Z,4.77
2023-12-13T14:25:43.985Z,6.87
2023-12-13T14:28:10.968Z,3.93
2023-12-13T14:30:38.740Z,3.20
2023-12-13T14:33:05.615Z,3.73
2023-12-13T14:35:32.336Z,4.53
2023-12-13T14:38:01.154Z,4.17
2023-12-13T14:40:29.102Z,4.13
2023-12-13T14:42:56.018Z,3.93
2023-12-13T14:45:23.228Z,3.90
2023-12-13T14:47:49.972Z,4.97
2023-12-13T14:50:17.033Z,4.70
2023-12-13T14:52:44.042Z,3.90
2023-12-13T14:55:11.155Z,3.20
2023-12-13T14:57:39.030Z,4.40
2023-12-13T15:00:13.785Z,5.20
2023-12-13T15:02:42.856Z,3.20
2023-12-13T15:05:17.912Z,3.47
2023-12-13T15:07:45.587Z,2.63
2023-12-13T15:10:15.239Z,3.60
2023-12-13T15:12:42.667Z,2.87
2023-12-13T15:15:10.012Z,2.80
2023-12-13T15:17:37.026Z,2.80
2023-12-13T15:20:09.288Z,4.63
2023-12-13T15:22:37.358Z,2.77
2023-12-13T15:25:09.951Z,5.03
2023-12-13T15:27:40.533Z,3.37
2023-12-13T15:30:09.684Z,3.60
2023-12-13T15:32:36.530Z,4.37
2023-12-13T15:35:06.427Z,5.87
2023-12-13T15:37:33.414Z,2.90
2023-12-13T15:40:00.268Z,3.03
2023-12-13T15:42:26.993Z,3.90
2023-12-13T15:44:56.637Z,3.37
2023-12-13T15:47:23.355Z,3.50
2023-12-13T15:49:50.028Z,3.37
2023-12-13T15:52:16.793Z,2.93
2023-12-13T15:54:43.451Z,4.30
2023-12-13T15:57:10.351Z,3.80
2023-12-13T15:59:37.108Z,6.17
2023-12-13T16:02:05.885Z,17.07
2023-12-13T16:04:34.700Z,7.67
2023-12-13T16:07:02.166Z,4.43
2023-12-13T16:09:28.846Z,5.53
2023-12-13T16:11:55.766Z,3.90
2023-12-13T16:14:26.273Z,4.37
2023-12-13T16:16:54.097Z,3.83
2023-12-13T16:19:21.427Z,3.60
2023-12-13T16:21:48.421Z,4.87
2023-12-13T16:24:15.084Z,4.93
2023-12-13T16:26:41.838Z,4.20
2023-12-13T16:29:17.246Z,6.57
2023-12-13T16:31:49.423Z,14.33
2023-12-13T16:34:16.252Z,3.57
2023-12-13T16:36:44.770Z,4.87
2023-12-13T16:39:12.538Z,4.70
2023-12-13T16:41:40.290Z,5.47
2023-12-13T16:44:07.050Z,4.63
2023-12-13T16:46:33.777Z,5.43
2023-12-13T16:49:00.591Z,6.73
2023-12-13T16:51:27.286Z,3.53
2023-12-13T16:53:53.860Z,3.93
2023-12-13T16:56:21.056Z,5.43
2023-12-13T16:58:47.942Z,4.50
2023-12-13T17:01:14.623Z,8.23
2023-12-13T17:03:43.762Z,5.80
2023-12-13T17:06:12.493Z,4.77
2023-12-13T17:08:39.171Z,4.93
2023-12-13T17:11:06.184Z,6.77
2023-12-13T17:13:33.003Z,8.23
2023-12-13T17:15:59.693Z,5.87
2023-12-13T17:18:26.510Z,8.27
2023-12-13T17:20:53.273Z,7.77
2023-12-13T17:23:19.950Z,6.63
2023-12-13T17:25:46.918Z,7.37
2023-12-13T17:28:13.578Z,7.63
2023-12-13T17:30:40.326Z,7.47
2023-12-13T17:33:07.139Z,4.77
2023-12-13T17:35:34.056Z,6.57
2023-12-13T17:38:01.035Z,5.80
2023-12-13T17:40:28.888Z,6.13
2023-12-13T17:42:55.536Z,6.80
2023-12-13T17:45:22.425Z,5.67
2023-12-13T17:47:49.127Z,6.30
2023-12-13T17:50:16.426Z,7.87
2023-12-13T17:52:43.897Z,26.03
2023-12-13T17:55:10.697Z,6.37
2023-12-13T17:57:38.658Z,5.83
2023-12-13T18:00:06.802Z,6.43
2023-12-13T18:02:33.693Z,7.17
2023-12-13T18:05:01.408Z,5.87
2023-12-13T18:07:28.222Z,14.93
2023-12-13T18:09:54.852Z,4.93
2023-12-13T18:12:21.703Z,5.00
2023-12-13T18:14:48.400Z,7.70
2023-12-13T18:17:15.138Z,5.87
2023-12-13T18:19:41.890Z,5.20
2023-12-13T18:22:09.449Z,6.10
2023-12-13T18:24:36.070Z,4.73
2023-12-13T18:27:02.770Z,4.87
2023-12-13T18:29:29.522Z,4.87
2023-12-13T18:31:56.335Z,6.57
2023-12-13T18:34:23.346Z,5.47
2023-12-13T18:36:50.090Z,3.43
2023-12-13T18:39:16.836Z,4.43
2023-12-13T18:41:43.415Z,4.80
2023-12-13T18:44:10.086Z,4.47
2023-12-13T18:46:37.899Z,4.50
2023-12-13T18:49:04.616Z,4.13
2023-12-13T18:51:31.328Z,4.80
2023-12-13T18:53:58.148Z,3.37
2023-12-13T18:56:24.893Z,4.97
2023-12-13T18:58:51.726Z,5.47
2023-12-13T19:01:18.483Z,7.07
2023-12-13T19:03:45.144Z,6.63
2023-12-13T19:06:12.000Z,4.83
2023-12-13T19:08:38.656Z,3.67
2023-12-13T19:11:05.736Z,4.47
2023-12-13T19:13:32.474Z,3.63
2023-12-13T19:15:59.335Z,3.83
2023-12-13T19:18:28.682Z,4.50
2023-12-13T19:20:57.218Z,5.07
2023-12-13T19:23:25.149Z,4.33
2023-12-13T19:25:52.027Z,5.13
2023-12-13T19:28:18.678Z,4.57
2023-12-13T19:30:45.369Z,6.23
2023-12-13T19:33:12.097Z,4.07
2023-12-13T19:35:38.755Z,3.10
2023-12-13T19:38:08.972Z,3.40
2023-12-13T19:40:36.223Z,5.20
2023-12-13T19:43:03.701Z,4.00
2023-12-13T19:45:31.289Z,4.20
2023-12-13T19:47:58.420Z,6.13
2023-12-13T19:50:25.142Z,6.87
2023-12-13T19:52:51.833Z,4.47
2023-12-13T19:55:18.565Z,4.90
2023-12-13T19:57:45.182Z,6.20
2023-12-13T20:00:12.845Z,6.47
2023-12-13T20:02:39.552Z,12.30
2023-12-13T20:05:07.650Z,5.53
2023-12-13T20:07:35.234Z,5.17
2023-12-13T20:10:02.103Z,5.10
2023-12-13T20:12:28.779Z,5.80
2023-12-13T20:14:55.381Z,6.67
2023-12-13T20:17:22.025Z,6.50
2023-12-13T20:19:50.536Z,6.17
2023-12-13T20:22:17.251Z,5.50
2023-12-13T20:24:46.862Z,6.57
2023-12-13T20:27:14.256Z,4.83
2023-12-13T20:29:41.173Z,9.97
2023-12-13T20:32:10.610Z,5.20
2023-12-13T20:34:37.430Z,5.87
2023-12-13T20:37:04.420Z,4.87
2023-12-13T20:39:31.209Z,4.97
2023-12-13T20:41:57.833Z,5.37
2023-12-13T20:44:24.419Z,5.50
2023-12-13T20:46:51.305Z,3.87
2023-12-13T20:49:18.058Z,6.13
2023-12-13T20:51:44.701Z,5.03
2023-12-13T20:54:11.349Z,11.07
2023-12-13T20:56:37.997Z,4.60
2023-12-13T20:59:04.852Z,5.83
2023-12-13T21:01:31.600Z,7.23
2023-12-13T21:03:58.298Z,5.50
2023-12-13T21:06:25.032Z,6.27
2023-12-13T21:08:52.894Z,4.93
2023-12-13T21:11:19.504Z,4.83
2023-12-13T21:13:46.333Z,6.17
2023-12-13T21:16:13.722Z,9.27
2023-12-13T21:18:40.443Z,6.10
2023-12-13T21:21:07.417Z,4.97
2023-12-13T21:23:34.160Z,6.03
2023-12-13T21:26:00.818Z,7.53
2023-12-13T21:28:27.530Z,6.93
2023-12-13T21:30:54.353Z,9.80
2023-12-13T21:33:21.179Z,5.13
2023-12-13T21:35:50.145Z,6.50
2023-12-13T21:38:17.250Z,6.53
2023-12-13T21:40:43.980Z,6.40
2023-12-13T21:43:10.657Z,4.53
2023-12-13T21:45:37.617Z,6.77
2023-12-13T21:48:07.235Z,4.63
2023-12-13T21:50:36.138Z,4.77
2023-12-13T21:53:02.952Z,4.67
2023-12-13T21:55:29.597Z,5.83
2023-12-13T21:57:56.794Z,5.37
2023-12-13T22:00:23.640Z,5.87
2023-12-13T22:02:50.378Z,5.10
2023-12-13T22:05:17.123Z,7.60
2023-12-13T22:07:44.057Z,5.57
2023-12-13T22:10:12.160Z,4.50
2023-12-13T22:12:38.780Z,4.03
2023-12-13T22:15:05.991Z,6.30
2023-12-13T22:17:37.930Z,4.57
2023-12-13T22:20:16.994Z,6.30
2023-12-13T22:22:44.730Z,6.43
2023-12-13T22:25:20.910Z,5.43
2023-12-13T22:27:47.471Z,5.47
2023-12-13T22:30:14.314Z,4.90
2023-12-13T22:32:41.031Z,6.00
2023-12-13T22:35:11.061Z,5.23
2023-12-13T22:37:38.976Z,3.37
2023-12-13T22:40:08.947Z,6.27
2023-12-13T22:42:36.168Z,4.30
2023-12-13T22:45:03.059Z,3.93
2023-12-13T22:47:30.414Z,4.87
2023-12-13T22:49:57.106Z,5.50
2023-12-13T22:52:25.155Z,4.93
2023-12-13T22:54:51.846Z,4.40
2023-12-13T22:57:18.466Z,2.47
2023-12-13T22:59:46.344Z,4.07
2023-12-13T23:02:15.753Z,3.53
2023-12-13T23:04:42.397Z,5.00
2023-12-13T23:07:09.024Z,4.50
2023-12-13T23:09:35.769Z,5.97
2023-12-13T23:12:03.066Z,4.37
2023-12-13T23:14:29.635Z,3.03
2023-12-13T23:16:58.418Z,3.97
2023-12-13T23:19:26.152Z,6.53
2023-12-13T23:21:52.782Z,4.93
2023-12-13T23:24:19.520Z,3.27
2023-12-13T23:26:46.086Z,4.03
2023-12-13T23:29:12.836Z,5.07
2023-12-13T23:31:42.161Z,6.80
2023-12-13T23:34:09.300Z,5.03
2023-12-13T23:36:35.933Z,5.60
2023-12-13T23:39:02.601Z,6.23
2023-12-13T23:41:29.242Z,3.57
2023-12-13T23:43:55.914Z,4.20
2023-12-13T23:46:22.742Z,3.57
2023-12-13T23:48:49.437Z,3.13
2023-12-13T23:51:16.141Z,3.43
2023-12-13T23:53:42.901Z,4.73
2023-12-13T23:56:25.489Z,3.53
2023-12-13T23:58:52.371Z,3.97
